KOXV

Details ICAO KOXV
Name KNOXVILLE MUNI
Region United States
Timezone America/Chicago (UTC-6.0)
Plans Departing 3
Arriving 7
Stats Elevation 928 ft / 283 m (AMSL)
Location 41.299100° -93.113745°
Runways 1
Magnetic Variation 0.434° E
Sunrise 2017-12-17 13:34:06 UTC / 2017-12-17 07:34:06 Local
Sunset 2017-12-17 22:46:02 UTC / 2017-12-17 16:46:02 Local
Advertisement - Login to hide

Runways

ID Width Length Bearing (true) Bearing (mag) Surface Threshold Offset Overrun Length
15 75 ft / 23 m 4,003 ft / 1,220 m 155.94° 155.51° Concrete 0 ft / 0 m 0 ft / 0 m
33 75 ft / 23 m 4,003 ft / 1,220 m 335.94° 335.51° Concrete 0 ft / 0 m 0 ft / 0 m

Map

Weather


0- 5 10 15 20 25 30 35+ Temperature / ° C

Clouds and Precipitation
Forecast for 2017-12-17 12:00 UTC. Updated an hour ago

Ground ~20,000 ft ~40,000 ft Winds

METAR

KOXV 171155Z AUTO 07005KT 10SM BKN160 OVC180 M01/M04 A2994 RMK AO2

TAF

Not found

Frequencies

Recorded 119.77 MHz AWOS 3
Approach 123.90 MHz DES MOINES APP/DEP
Unicom 122.80 MHz CTAF/UNICOM
Warning: Do not use this data for real-world aviation or navigation. No guarantee of current accuracy is given.